Time;durP1;ratioP1;P1;durP2;ratioP2;P2;SDS_P1;SDS_P2;PMS_P1;PMS_P2;Temp;Humidity;BMP_temperature;BMP_pressure;BME280_temperature;BME280_humidity;BME280_pressure;Samples;Min_cycle;Max_cycle;Signal;HPM_P1;HPM_P2
2023/05/23 00:00:01;;;;;;;2.20;2.10;;;17.50;99.90;;;;;;5033610;28;20305;-61
2023/05/23 00:02:29;;;;;;;2.40;2.30;;;17.60;99.90;;;;;;5034072;28;20205;-61
2023/05/23 00:04:57;;;;;;;2.83;2.30;;;17.50;99.90;;;;;;5040389;28;20678;-61
2023/05/23 00:07:25;;;;;;;2.30;2.20;;;17.40;99.90;;;;;;5036671;28;20208;-61
2023/05/23 00:09:51;;;;;;;2.35;2.25;;;17.30;99.90;;;;;;5034050;28;20267;-62
2023/05/23 00:12:20;;;;;;;2.10;2.00;;;17.20;99.90;;;;;;5036873;28;20272;-60
2023/05/23 00:14:46;;;;;;;2.15;2.05;;;17.20;99.90;;;;;;5038153;28;20299;-62
2023/05/23 00:17:13;;;;;;;2.20;2.10;;;17.20;99.90;;;;;;5034106;28;20209;-61
2023/05/23 00:19:40;;;;;;;2.10;2.00;;;17.20;99.90;;;;;;5032900;28;20239;-62
2023/05/23 00:22:07;;;;;;;2.10;2.00;;;17.20;99.90;;;;;;5041708;28;20328;-62
2023/05/23 00:24:34;;;;;;;2.10;2.00;;;17.20;99.90;;;;;;5033079;28;20205;-62
2023/05/23 00:27:00;;;;;;;2.10;2.00;;;17.20;99.90;;;;;;5033575;28;20232;-62
2023/05/23 00:29:29;;;;;;;2.00;1.90;;;17.30;99.90;;;;;;5032535;28;20217;-62
2023/05/23 00:31:55;;;;;;;2.20;2.10;;;17.30;99.90;;;;;;5033294;28;20766;-62
2023/05/23 00:34:22;;;;;;;2.30;2.20;;;17.40;99.90;;;;;;5033572;28;20204;-61
2023/05/23 00:36:49;;;;;;;2.25;2.15;;;17.20;99.90;;;;;;5033052;28;20205;-62
2023/05/23 00:39:18;;;;;;;2.10;2.00;;;17.10;99.90;;;;;;5032312;28;20593;-62
2023/05/23 00:41:46;;;;;;;2.17;2.03;;;17.20;99.90;;;;;;5033062;28;20212;-62
2023/05/23 00:44:13;;;;;;;2.10;2.00;;;17.20;99.90;;;;;;5032980;28;20212;-61
2023/05/23 00:46:43;;;;;;;2.38;2.20;;;17.20;99.90;;;;;;5032569;28;20616;-61
2023/05/23 00:49:10;;;;;;;1.92;1.83;;;17.10;99.90;;;;;;5031842;28;20216;-61
2023/05/23 00:51:37;;;;;;;2.03;1.92;;;17.10;99.90;;;;;;5033167;28;20675;-61
2023/05/23 00:54:05;;;;;;;2.03;1.92;;;17.10;99.90;;;;;;5032519;28;20666;-61
2023/05/23 00:56:32;;;;;;;2.08;1.98;;;17.10;99.90;;;;;;5032668;28;20676;-61
2023/05/23 00:59:00;;;;;;;2.20;2.10;;;17.10;99.90;;;;;;5032868;28;20232;-62
2023/05/23 01:01:27;;;;;;;2.08;1.98;;;17.10;99.90;;;;;;5038421;28;20335;-62
2023/05/23 01:03:55;;;;;;;2.10;2.00;;;17.00;99.90;;;;;;5032528;28;20698;-62
2023/05/23 01:06:22;;;;;;;2.40;2.20;;;16.90;99.90;;;;;;5033065;28;20209;-61
2023/05/23 01:08:49;;;;;;;2.53;2.42;;;16.90;99.90;;;;;;5033160;28;20220;-61
2023/05/23 01:11:25;;;;;;;2.40;2.30;;;16.80;99.90;;;;;;5032562;28;20211;-61
2023/05/23 01:13:59;;;;;;;2.38;2.17;;;16.80;99.90;;;;;;5032753;28;20246;-62
2023/05/23 01:16:36;;;;;;;2.25;2.10;;;16.80;99.90;;;;;;5032901;28;20683;-61
2023/05/23 01:19:16;;;;;;;2.00;1.90;;;16.80;99.90;;;;;;5032554;28;20228;-61
2023/05/23 01:21:45;;;;;;;2.20;2.10;;;16.80;99.90;;;;;;5032890;28;20212;-61
2023/05/23 01:24:36;;;;;;;2.00;1.90;;;16.80;99.90;;;;;;5032779;28;20671;-61
2023/05/23 01:27:12;;;;;;;2.15;2.05;;;17.00;99.90;;;;;;5032443;28;20196;-62
2023/05/23 01:29:45;;;;;;;2.20;2.00;;;17.00;99.90;;;;;;5031497;28;20228;-62
2023/05/23 01:32:13;;;;;;;1.92;1.83;;;17.00;99.90;;;;;;5032145;28;20275;-62
2023/05/23 01:34:42;;;;;;;2.10;2.00;;;17.10;99.90;;;;;;5031807;28;20675;-62
2023/05/23 01:37:10;;;;;;;2.20;2.10;;;17.00;99.90;;;;;;5031900;28;20632;-63
2023/05/23 01:39:37;;;;;;;2.40;2.30;;;17.10;99.90;;;;;;5030812;28;20224;-62
2023/05/23 01:42:05;;;;;;;2.17;2.08;;;17.10;99.90;;;;;;5031529;28;20204;-61
2023/05/23 01:44:32;;;;;;;2.30;2.20;;;17.00;99.90;;;;;;5031905;28;20204;-62
2023/05/23 01:47:02;;;;;;;2.30;2.20;;;17.00;99.90;;;;;;5031924;28;20228;-62
2023/05/23 01:49:31;;;;;;;2.33;2.20;;;16.90;99.90;;;;;;5026640;28;20225;-62
2023/05/23 01:51:59;;;;;;;2.45;2.35;;;16.80;99.90;;;;;;5031771;28;20204;-63
2023/05/23 01:54:28;;;;;;;2.20;2.10;;;16.70;99.90;;;;;;5031751;28;20204;-63
2023/05/23 01:56:56;;;;;;;2.22;2.13;;;16.70;99.90;;;;;;5031630;28;20262;-62
2023/05/23 01:59:23;;;;;;;2.20;2.10;;;16.70;99.90;;;;;;5030638;28;21287;-62
2023/05/23 02:01:50;;;;;;;2.33;2.22;;;16.70;99.90;;;;;;5030459;28;20213;-61
2023/05/23 02:04:18;;;;;;;2.33;2.13;;;16.70;99.90;;;;;;5031609;28;20212;-63
2023/05/23 02:06:45;;;;;;;2.30;2.20;;;16.70;99.90;;;;;;5031729;28;20606;-63
2023/05/23 02:09:12;;;;;;;2.30;2.20;;;16.80;99.90;;;;;;5031817;28;20267;-63
2023/05/23 02:11:39;;;;;;;2.22;2.13;;;16.70;99.90;;;;;;5031172;28;20300;-61
2023/05/23 02:14:06;;;;;;;2.20;2.10;;;16.70;99.90;;;;;;5031379;28;20207;-62
2023/05/23 02:16:35;;;;;;;2.30;2.20;;;16.60;99.90;;;;;;5031298;28;20239;-62
2023/05/23 02:19:02;;;;;;;2.30;2.10;;;16.60;99.90;;;;;;5030817;28;20244;-63
2023/05/23 02:21:31;;;;;;;2.47;2.38;;;16.50;99.90;;;;;;5030989;28;20244;-62
2023/05/23 02:23:58;;;;;;;2.13;2.03;;;16.50;99.90;;;;;;5031224;28;20208;-62
2023/05/23 02:26:26;;;;;;;2.10;2.00;;;16.50;99.90;;;;;;5031778;28;20205;-63
2023/05/23 02:28:53;;;;;;;2.10;2.00;;;16.40;99.90;;;;;;5034307;28;20264;-63
2023/05/23 02:31:20;;;;;;;2.40;2.30;;;16.50;99.90;;;;;;5030331;28;20212;-62
2023/05/23 02:33:47;;;;;;;1.92;1.83;;;16.60;99.90;;;;;;5031023;28;20308;-62
2023/05/23 02:36:14;;;;;;;2.35;2.20;;;16.50;99.90;;;;;;5031050;28;20235;-61
2023/05/23 02:38:42;;;;;;;2.00;1.90;;;16.50;99.90;;;;;;5030777;28;20549;-62
2023/05/23 02:41:09;;;;;;;2.15;2.05;;;16.50;99.90;;;;;;5029992;28;20319;-62
2023/05/23 02:43:36;;;;;;;2.30;2.20;;;16.60;99.90;;;;;;5030841;28;20279;-62
2023/05/23 02:46:02;;;;;;;2.28;2.17;;;16.50;99.90;;;;;;5030907;28;20360;-62
2023/05/23 02:48:29;;;;;;;2.30;2.20;;;16.70;99.90;;;;;;5030284;28;20228;-63
2023/05/23 02:50:56;;;;;;;2.30;2.20;;;16.60;99.90;;;;;;5029709;28;20210;-62
2023/05/23 02:53:23;;;;;;;2.30;2.20;;;16.60;99.90;;;;;;5030743;28;20212;-63
2023/05/23 02:55:51;;;;;;;2.20;2.08;;;16.70;99.90;;;;;;5030364;28;20218;-63
2023/05/23 02:58:18;;;;;;;2.30;2.20;;;16.70;99.90;;;;;;5030253;28;20228;-62
2023/05/23 03:00:45;;;;;;;2.50;2.40;;;16.80;99.90;;;;;;5029699;28;20264;-62
2023/05/23 03:03:12;;;;;;;2.20;2.10;;;16.80;99.90;;;;;;5030578;28;20675;-62
2023/05/23 03:05:39;;;;;;;2.00;1.90;;;16.80;99.90;;;;;;5031168;28;20314;-62
2023/05/23 03:08:06;;;;;;;2.08;1.98;;;16.80;99.90;;;;;;5030532;28;20232;-63
2023/05/23 03:10:32;;;;;;;2.10;2.00;;;16.90;99.90;;;;;;5029495;28;20212;-62
2023/05/23 03:13:00;;;;;;;2.30;2.20;;;16.80;99.90;;;;;;5030799;28;20208;-62
2023/05/23 03:15:27;;;;;;;2.20;2.10;;;16.80;99.90;;;;;;5031043;28;20207;-62
2023/05/23 03:17:54;;;;;;;2.20;2.10;;;16.80;99.90;;;;;;5030493;28;20221;-62
2023/05/23 03:20:21;;;;;;;2.30;2.20;;;16.80;99.90;;;;;;5029822;28;20714;-62
2023/05/23 03:22:48;;;;;;;2.45;2.30;;;16.80;99.90;;;;;;5030244;28;20224;-62
2023/05/23 03:25:15;;;;;;;2.28;2.17;;;16.70;99.90;;;;;;5030138;28;20579;-62
2023/05/23 03:27:42;;;;;;;2.10;2.00;;;16.60;99.90;;;;;;5030596;28;20229;-64
2023/05/23 03:30:11;;;;;;;2.28;2.17;;;16.70;99.90;;;;;;5029544;28;20807;-63
2023/05/23 03:32:38;;;;;;;2.40;2.30;;;16.60;99.90;;;;;;5029918;28;20693;-62
2023/05/23 03:35:05;;;;;;;2.38;2.28;;;16.60;99.90;;;;;;5030206;28;20216;-62
2023/05/23 03:37:32;;;;;;;1.90;1.80;;;16.60;99.90;;;;;;5030056;28;20209;-63
2023/05/23 03:39:59;;;;;;;2.50;2.40;;;16.60;99.90;;;;;;5029323;28;20589;-63
2023/05/23 03:42:26;;;;;;;2.50;2.30;;;16.70;99.90;;;;;;5030341;28;20211;-63
2023/05/23 03:44:52;;;;;;;2.30;2.20;;;16.80;99.90;;;;;;5030329;28;20214;-63
2023/05/23 03:47:21;;;;;;;2.10;2.00;;;16.70;99.90;;;;;;5030452;28;20217;-62
2023/05/23 03:49:47;;;;;;;2.20;2.10;;;16.80;99.90;;;;;;5032258;28;20235;-63
2023/05/23 03:52:14;;;;;;;1.95;1.85;;;16.80;99.90;;;;;;5035655;28;20548;-63
2023/05/23 03:54:41;;;;;;;2.20;2.10;;;16.90;99.90;;;;;;5031032;28;20211;-63
2023/05/23 03:57:08;;;;;;;2.25;2.15;;;16.90;99.90;;;;;;5034663;28;20258;-63
2023/05/23 03:59:35;;;;;;;2.20;2.10;;;16.90;99.90;;;;;;5032956;28;20235;-63
2023/05/23 04:02:01;;;;;;;1.95;1.85;;;17.00;99.90;;;;;;5030579;28;20208;-64
2023/05/23 04:04:30;;;;;;;2.28;2.17;;;17.00;99.90;;;;;;5030672;28;20658;-62
2023/05/23 04:06:57;;;;;;;2.10;2.00;;;17.00;99.90;;;;;;5030491;28;20220;-62
2023/05/23 04:09:24;;;;;;;2.03;1.92;;;17.00;99.90;;;;;;5029360;28;20240;-62
2023/05/23 04:11:51;;;;;;;2.08;1.98;;;17.00;99.90;;;;;;5030660;28;20212;-63
2023/05/23 04:14:19;;;;;;;2.20;2.10;;;17.10;99.90;;;;;;5030511;28;20215;-62
2023/05/23 04:16:47;;;;;;;2.47;2.38;;;17.00;99.90;;;;;;5030076;28;20671;-62
2023/05/23 04:19:13;;;;;;;2.20;2.10;;;17.00;99.90;;;;;;5029740;28;20236;-62
2023/05/23 04:21:42;;;;;;;2.95;2.75;;;17.00;99.90;;;;;;5030184;28;20409;-62
2023/05/23 04:24:08;;;;;;;2.50;2.40;;;17.00;99.90;;;;;;5031889;28;20288;-62
2023/05/23 04:26:36;;;;;;;2.50;2.30;;;17.00;99.90;;;;;;5033404;28;20207;-62
2023/05/23 04:29:04;;;;;;;2.35;2.25;;;17.00;99.90;;;;;;5033405;28;20235;-63
2023/05/23 04:31:32;;;;;;;4.28;4.07;;;17.00;99.90;;;;;;5033978;28;20247;-62
2023/05/23 04:33:59;;;;;;;2.58;2.47;;;17.10;99.90;;;;;;5034282;28;20613;-62
2023/05/23 04:36:26;;;;;;;2.35;2.25;;;17.20;99.90;;;;;;5037792;28;20212;-62
2023/05/23 04:38:54;;;;;;;2.20;2.10;;;17.10;99.90;;;;;;5034605;28;20239;-62
2023/05/23 04:41:22;;;;;;;2.30;2.20;;;17.20;99.90;;;;;;5033598;28;20228;-63
2023/05/23 04:43:52;;;;;;;2.08;1.98;;;17.20;99.90;;;;;;5039995;28;20216;-63
2023/05/23 04:46:25;;;;;;;2.10;2.00;;;17.20;99.90;;;;;;5034251;28;20235;-63
2023/05/23 04:48:52;;;;;;;2.10;2.00;;;17.20;99.90;;;;;;5033165;28;20730;-63
2023/05/23 04:51:20;;;;;;;1.92;1.83;;;17.30;99.90;;;;;;5039250;28;20630;-63
2023/05/23 04:53:47;;;;;;;2.10;2.00;;;17.40;99.90;;;;;;5033513;28;20216;-63
2023/05/23 04:56:19;;;;;;;2.08;1.98;;;17.40;99.90;;;;;;5033728;28;20214;-63
2023/05/23 04:58:46;;;;;;;2.10;2.00;;;17.40;99.90;;;;;;5033262;28;20315;-63
2023/05/23 05:01:13;;;;;;;2.25;2.15;;;17.40;99.90;;;;;;5032709;28;20228;-63
2023/05/23 05:03:40;;;;;;;1.95;1.85;;;17.40;99.90;;;;;;5033162;28;20262;-63
2023/05/23 05:06:07;;;;;;;2.20;2.10;;;17.50;99.90;;;;;;5033299;28;20209;-63
2023/05/23 05:08:35;;;;;;;2.33;2.22;;;17.50;99.90;;;;;;5032771;28;20232;-63
2023/05/23 05:11:01;;;;;;;2.05;1.88;;;17.50;99.90;;;;;;5031967;28;20209;-62
2023/05/23 05:13:29;;;;;;;2.88;2.38;;;17.60;99.90;;;;;;5032472;28;20200;-63
2023/05/23 05:15:57;;;;;;;2.15;2.05;;;17.60;99.90;;;;;;5033141;28;20208;-63
2023/05/23 05:18:25;;;;;;;2.20;2.10;;;17.70;99.90;;;;;;5032682;28;20229;-63
2023/05/23 05:20:52;;;;;;;2.50;2.38;;;17.70;99.90;;;;;;5032182;28;20895;-62
2023/05/23 05:23:19;;;;;;;2.42;2.30;;;17.70;99.90;;;;;;5032524;28;20235;-62
2023/05/23 05:25:46;;;;;;;2.40;2.30;;;17.70;99.90;;;;;;5032937;28;20215;-62
2023/05/23 05:28:13;;;;;;;2.25;2.15;;;17.80;99.90;;;;;;5032275;28;20287;-63
2023/05/23 05:30:41;;;;;;;2.30;2.20;;;17.80;99.90;;;;;;5032513;28;20204;-62
2023/05/23 05:33:09;;;;;;;2.20;2.10;;;17.90;99.90;;;;;;5037286;28;20228;-65
2023/05/23 05:35:37;;;;;;;2.42;2.33;;;17.90;99.90;;;;;;5037610;28;20209;-64
2023/05/23 05:38:04;;;;;;;2.10;2.00;;;17.90;99.90;;;;;;5036761;28;20243;-63
2023/05/23 05:40:31;;;;;;;1.98;1.88;;;18.00;99.90;;;;;;5035664;28;20703;-63
2023/05/23 05:42:58;;;;;;;2.20;2.10;;;18.10;99.90;;;;;;5036555;28;20205;-63
2023/05/23 05:45:25;;;;;;;2.28;2.17;;;18.10;99.90;;;;;;5036660;28;20291;-65
2023/05/23 05:47:53;;;;;;;2.05;1.95;;;18.20;99.90;;;;;;5037926;28;20240;-63
2023/05/23 05:50:20;;;;;;;2.30;2.20;;;18.30;99.90;;;;;;5044734;28;20203;-64
2023/05/23 05:52:46;;;;;;;2.10;2.00;;;18.40;99.90;;;;;;5046270;28;20223;-63
2023/05/23 05:55:13;;;;;;;2.15;2.05;;;18.50;99.90;;;;;;5047136;28;20268;-64
2023/05/23 05:57:41;;;;;;;2.60;2.50;;;18.60;99.90;;;;;;5045249;28;20224;-64
2023/05/23 06:00:12;;;;;;;2.40;2.20;;;18.70;99.90;;;;;;5032034;28;20239;-65
2023/05/23 06:02:39;;;;;;;2.60;2.50;;;18.90;99.90;;;;;;5032277;28;20272;-63
2023/05/23 06:05:11;;;;;;;2.60;2.50;;;19.10;99.90;;;;;;5032099;28;20637;-64
2023/05/23 06:07:37;;;;;;;2.70;2.60;;;19.10;99.90;;;;;;5031884;28;20599;-64
2023/05/23 06:10:05;;;;;;;2.67;2.58;;;19.30;99.90;;;;;;5031578;28;20189;-63
2023/05/23 06:12:32;;;;;;;2.90;2.80;;;19.40;99.90;;;;;;5031994;28;20235;-64
2023/05/23 06:14:59;;;;;;;2.90;2.70;;;19.60;99.90;;;;;;5031844;28;20579;-64
2023/05/23 06:17:26;;;;;;;2.65;2.53;;;19.70;99.90;;;;;;5031015;28;20213;-63
2023/05/23 06:19:53;;;;;;;2.70;2.60;;;19.80;99.90;;;;;;5029321;28;20689;-64
2023/05/23 06:22:21;;;;;;;2.63;2.53;;;19.90;99.90;;;;;;5030033;28;20211;-64
2023/05/23 06:24:48;;;;;;;2.70;2.60;;;20.10;99.90;;;;;;5030120;28;20442;-63
2023/05/23 06:27:15;;;;;;;2.85;2.75;;;20.20;99.90;;;;;;5029803;28;20682;-64
2023/05/23 06:29:41;;;;;;;3.45;3.25;;;20.40;99.90;;;;;;5029337;28;20719;-64
2023/05/23 06:32:08;;;;;;;3.72;3.53;;;20.40;99.90;;;;;;5030144;28;20452;-64
2023/05/23 06:34:35;;;;;;;3.97;3.78;;;20.40;99.90;;;;;;5031298;28;20211;-63
2023/05/23 06:37:02;;;;;;;4.35;4.13;;;20.40;99.90;;;;;;5031754;28;20212;-63
2023/05/23 06:39:30;;;;;;;4.22;4.03;;;20.10;99.90;;;;;;5030928;28;20235;-63
2023/05/23 06:41:57;;;;;;;4.10;3.80;;;19.90;99.90;;;;;;5031733;28;20228;-63
2023/05/23 06:44:24;;;;;;;3.83;3.63;;;19.90;99.90;;;;;;5031644;28;20624;-64
2023/05/23 06:46:56;;;;;;;4.38;4.18;;;19.80;99.90;;;;;;5030866;28;20213;-65
2023/05/23 06:49:23;;;;;;;4.20;4.00;;;19.70;99.90;;;;;;5030468;28;20232;-65
2023/05/23 06:51:49;;;;;;;4.53;4.22;;;19.70;99.90;;;;;;5031306;28;20562;-62
2023/05/23 06:54:16;;;;;;;4.30;4.10;;;19.60;99.90;;;;;;5031269;28;20201;-63
2023/05/23 06:56:45;;;;;;;4.43;4.22;;;19.60;99.90;;;;;;5031085;28;20205;-65
2023/05/23 06:59:11;;;;;;;4.55;4.35;;;19.60;99.90;;;;;;5030249;28;20228;-63
2023/05/23 07:01:38;;;;;;;5.45;5.15;;;19.50;99.90;;;;;;5030807;28;20224;-64
2023/05/23 07:04:05;;;;;;;5.07;4.78;;;19.50;99.90;;;;;;5030907;28;20211;-64
2023/05/23 07:06:34;;;;;;;4.68;4.38;;;19.40;99.90;;;;;;5030970;28;20557;-64
2023/05/23 07:09:01;;;;;;;5.45;5.15;;;19.50;99.90;;;;;;5030658;28;20256;-63
2023/05/23 07:11:28;;;;;;;4.85;4.65;;;19.50;99.90;;;;;;5030734;28;20201;-63
2023/05/23 07:13:56;;;;;;;5.47;5.07;;;19.60;99.90;;;;;;5031173;28;20214;-63
2023/05/23 07:16:22;;;;;;;5.28;4.97;;;19.70;99.90;;;;;;5030720;28;20211;-63
2023/05/23 07:18:49;;;;;;;4.75;4.55;;;19.80;99.90;;;;;;5030828;28;20234;-63
2023/05/23 07:21:16;;;;;;;5.22;4.93;;;19.90;99.90;;;;;;5030782;28;20335;-63
2023/05/23 07:23:43;;;;;;;5.38;5.07;;;20.00;99.90;;;;;;5031047;28;20709;-63
2023/05/23 07:26:10;;;;;;;5.07;4.78;;;20.10;99.90;;;;;;5033407;28;20338;-64
2023/05/23 07:28:37;;;;;;;4.93;4.72;;;20.10;99.90;;;;;;5031548;28;20221;-63
2023/05/23 07:31:08;;;;;;;5.20;5.00;;;20.20;99.90;;;;;;5030396;28;20200;-63
2023/05/23 07:33:34;;;;;;;4.53;4.22;;;20.20;99.90;;;;;;5030844;28;20196;-63
2023/05/23 07:36:01;;;;;;;3.92;3.72;;;20.10;99.90;;;;;;5034529;28;20209;-64
2023/05/23 07:38:28;;;;;;;4.40;4.20;;;20.00;99.90;;;;;;5034233;28;20315;-64
2023/05/23 07:40:55;;;;;;;4.13;3.92;;;20.00;99.90;;;;;;5030398;28;20235;-64
2023/05/23 07:43:22;;;;;;;3.65;3.45;;;19.90;99.90;;;;;;5030720;28;20227;-65
2023/05/23 07:45:49;;;;;;;3.85;3.58;;;19.80;99.90;;;;;;5030540;28;20621;-64
2023/05/23 07:48:17;;;;;;;3.63;3.42;;;19.90;99.90;;;;;;5030746;28;20250;-64
2023/05/23 07:50:44;;;;;;;3.80;3.60;;;20.00;99.90;;;;;;5030519;28;20733;-64
2023/05/23 07:53:11;;;;;;;3.30;3.10;;;20.20;99.90;;;;;;5030770;28;20524;-64
2023/05/23 07:55:38;;;;;;;3.47;3.33;;;20.20;99.90;;;;;;5031318;28;20283;-64
2023/05/23 07:58:04;;;;;;;3.35;3.15;;;20.20;99.90;;;;;;5030264;28;20243;-63
2023/05/23 08:00:31;;;;;;;3.65;3.35;;;20.30;99.90;;;;;;5034054;28;20212;-65
2023/05/23 08:02:58;;;;;;;3.10;3.00;;;20.30;99.90;;;;;;5034605;28;20204;-63
2023/05/23 08:05:26;;;;;;;3.38;3.17;;;20.20;99.90;;;;;;5034376;28;20204;-64
2023/05/23 08:07:54;;;;;;;4.32;4.13;;;20.30;99.90;;;;;;5034298;28;20224;-65
2023/05/23 08:10:21;;;;;;;2.90;2.70;;;20.30;99.90;;;;;;5033707;28;20232;-64
2023/05/23 08:12:47;;;;;;;3.53;3.33;;;20.30;99.90;;;;;;5034172;28;20200;-64
2023/05/23 08:15:14;;;;;;;2.88;2.78;;;20.30;99.90;;;;;;5033700;28;20215;-64
2023/05/23 08:17:41;;;;;;;3.10;2.90;;;20.50;99.90;;;;;;5033905;28;20220;-64
2023/05/23 08:20:10;;;;;;;3.67;3.47;;;20.70;99.90;;;;;;5033816;28;20208;-65
2023/05/23 08:22:39;;;;;;;2.95;2.75;;;20.80;99.90;;;;;;5034010;28;20600;-65
2023/05/23 08:25:06;;;;;;;2.85;2.65;;;20.80;99.90;;;;;;5033611;28;20215;-64
2023/05/23 08:27:34;;;;;;;2.97;2.80;;;20.60;99.90;;;;;;5033824;28;20204;-63
2023/05/23 08:30:02;;;;;;;2.78;2.58;;;20.50;99.90;;;;;;5033458;28;20204;-64
2023/05/23 08:32:29;;;;;;;2.83;2.72;;;20.50;99.90;;;;;;5033761;28;20259;-63
2023/05/23 08:34:56;;;;;;;2.53;2.42;;;20.40;99.90;;;;;;5033853;28;20219;-63
2023/05/23 08:37:23;;;;;;;3.45;3.33;;;20.40;99.90;;;;;;5033976;28;20208;-64
2023/05/23 08:39:52;;;;;;;2.65;2.53;;;20.50;99.90;;;;;;5032805;28;20569;-63
2023/05/23 08:42:18;;;;;;;2.50;2.40;;;20.60;99.90;;;;;;5034520;28;20302;-65
2023/05/23 08:44:45;;;;;;;2.65;2.55;;;20.70;99.90;;;;;;5033934;28;20243;-65
2023/05/23 08:47:16;;;;;;;2.60;2.50;;;20.80;99.90;;;;;;5034028;28;20299;-63
2023/05/23 08:49:44;;;;;;;2.30;2.20;;;20.90;99.90;;;;;;5033250;28;20231;-65
2023/05/23 08:52:12;;;;;;;2.10;2.00;;;20.80;99.90;;;;;;5035444;28;20209;-64
2023/05/23 08:54:41;;;;;;;2.50;2.40;;;20.90;99.90;;;;;;5034813;28;20201;-64
2023/05/23 08:57:09;;;;;;;2.08;1.98;;;21.00;99.90;;;;;;5034063;28;20296;-63
2023/05/23 08:59:37;;;;;;;2.55;2.45;;;20.90;99.90;;;;;;5033520;28;20225;-64
2023/05/23 09:02:08;;;;;;;2.85;2.65;;;20.90;99.90;;;;;;5033616;28;20307;-64
2023/05/23 09:04:35;;;;;;;2.33;2.13;;;20.80;99.90;;;;;;5033729;28;20210;-63
2023/05/23 09:07:03;;;;;;;2.35;2.25;;;20.80;99.90;;;;;;5035761;28;20204;-64
2023/05/23 09:09:30;;;;;;;2.30;2.15;;;20.80;99.90;;;;;;5036958;28;20229;-64
2023/05/23 09:11:59;;;;;;;2.17;2.08;;;20.90;99.90;;;;;;5037062;28;20640;-64
2023/05/23 09:14:29;;;;;;;2.65;2.45;;;21.00;99.90;;;;;;5036217;28;20424;-66
2023/05/23 09:17:00;;;;;;;2.85;2.67;;;21.00;99.90;;;;;;5035216;28;20232;-63
2023/05/23 09:19:27;;;;;;;2.45;2.35;;;21.00;99.90;;;;;;5033674;28;20239;-64
2023/05/23 09:21:54;;;;;;;2.72;2.63;;;21.00;99.90;;;;;;5033218;28;20247;-63
2023/05/23 09:24:22;;;;;;;2.95;2.83;;;21.10;99.90;;;;;;5032976;28;20667;-64
2023/05/23 09:26:49;;;;;;;3.63;3.42;;;21.20;99.90;;;;;;5032951;28;20239;-64
2023/05/23 09:29:20;;;;;;;3.30;3.10;;;21.00;99.90;;;;;;5032524;28;20228;-64
2023/05/23 09:31:48;;;;;;;4.88;4.68;;;20.90;99.90;;;;;;5032451;28;20687;-63
2023/05/23 09:34:15;;;;;;;2.60;2.50;;;20.80;99.90;;;;;;5032900;28;20369;-65
2023/05/23 09:36:42;;;;;;;3.05;2.95;;;20.80;99.90;;;;;;5032940;28;20211;-66
2023/05/23 09:39:12;;;;;;;3.78;3.63;;;20.80;99.90;;;;;;5031751;28;20224;-63
2023/05/23 09:41:39;;;;;;;2.70;2.50;;;20.80;99.90;;;;;;5032628;28;20271;-64
2023/05/23 09:44:08;;;;;;;2.70;2.60;;;20.70;99.90;;;;;;5032547;28;20733;-65
2023/05/23 09:46:36;;;;;;;2.50;2.40;;;20.80;99.90;;;;;;5031925;28;20212;-63
2023/05/23 09:49:15;;;;;;;2.40;2.30;;;21.00;99.90;;;;;;5032334;28;20278;-66
2023/05/23 09:51:42;;;;;;;2.65;2.55;;;21.00;99.90;;;;;;5032661;28;20598;-64
2023/05/23 09:54:09;;;;;;;2.60;2.50;;;21.00;99.90;;;;;;5032641;28;20292;-64
2023/05/23 09:56:42;;;;;;;2.38;2.28;;;21.00;99.90;;;;;;5032021;28;20204;-63
2023/05/23 09:59:12;;;;;;;2.58;2.38;;;21.20;99.90;;;;;;5032058;28;20286;-65
2023/05/23 10:01:41;;;;;;;2.35;2.25;;;21.10;99.90;;;;;;5032248;28;20576;-65
2023/05/23 10:04:10;;;;;;;2.70;2.58;;;21.50;99.90;;;;;;5031996;28;20204;-63
2023/05/23 10:06:42;;;;;;;10.65;9.82;;;21.80;99.90;;;;;;5031985;28;20218;-64
2023/05/23 10:09:14;;;;;;;2.72;2.63;;;21.80;99.90;;;;;;5032042;28;20279;-66
2023/05/23 10:12:14;;;;;;;7.75;7.45;;;21.70;99.90;;;;;;5032190;28;20192;-65
2023/05/23 10:14:47;;;;;;;3.00;2.80;;;21.90;99.90;;;;;;5022953;28;20205;-64
2023/05/23 10:17:21;;;;;;;3.08;2.88;;;22.00;99.90;;;;;;5032232;28;20200;-65
2023/05/23 10:19:58;;;;;;;5.38;5.18;;;22.10;99.90;;;;;;5031092;28;20193;-64
2023/05/23 10:22:25;;;;;;;7.93;7.63;;;22.20;99.90;;;;;;5031244;28;20224;-64
2023/05/23 10:24:53;;;;;;;2.53;2.42;;;22.00;99.90;;;;;;5035946;28;20205;-65
2023/05/23 10:27:20;;;;;;;2.70;2.50;;;21.90;99.90;;;;;;5032262;28;20204;-65
2023/05/23 10:29:47;;;;;;;2.40;2.20;;;21.80;99.90;;;;;;5031238;28;20323;-64
2023/05/23 10:32:15;;;;;;;4.55;4.35;;;22.00;99.90;;;;;;5031817;28;20215;-66
2023/05/23 10:34:47;;;;;;;3.15;3.05;;;22.30;99.90;;;;;;5032092;28;20209;-65
2023/05/23 10:37:20;;;;;;;4.20;4.00;;;22.10;99.90;;;;;;5032176;28;20216;-65
2023/05/23 10:39:59;;;;;;;2.78;2.63;;;22.00;99.90;;;;;;5030970;28;20227;-64
2023/05/23 10:42:35;;;;;;;3.58;3.17;;;21.90;99.90;;;;;;5031702;28;20239;-64
2023/05/23 10:45:15;;;;;;;4.47;4.28;;;21.80;99.90;;;;;;5031887;28;20212;-64
2023/05/23 10:47:42;;;;;;;7.68;7.35;;;22.00;99.90;;;;;;5032337;28;20343;-65
2023/05/23 10:50:13;;;;;;;4.68;4.38;;;22.00;99.90;;;;;;5030849;28;20201;-65
2023/05/23 10:52:43;;;;;;;2.63;2.53;;;21.90;99.90;;;;;;5038361;28;20698;-66
2023/05/23 10:55:16;;;;;;;2.60;2.40;;;22.00;99.90;;;;;;5031776;28;20667;-65
2023/05/23 10:57:44;;;;;;;2.85;2.60;;;22.10;99.90;;;;;;5033640;28;20243;-64
2023/05/23 11:00:16;;;;;;;2.50;2.40;;;22.20;99.90;;;;;;5031308;28;20240;-65
2023/05/23 11:02:55;;;;;;;2.70;2.50;;;22.10;99.90;;;;;;5032075;28;20323;-65
2023/05/23 11:05:23;;;;;;;2.50;2.40;;;22.00;99.90;;;;;;5031837;28;20201;-64
2023/05/23 11:08:12;;;;;;;3.08;2.88;;;22.00;99.90;;;;;;5030977;28;20665;-64
2023/05/23 11:10:58;;;;;;;2.30;2.20;;;21.90;99.90;;;;;;5030472;28;20215;-65
2023/05/23 11:13:25;;;;;;;2.78;2.67;;;21.70;99.90;;;;;;5031481;28;20197;-64
2023/05/23 11:15:52;;;;;;;2.30;2.20;;;21.70;99.90;;;;;;5031053;28;20240;-64
2023/05/23 11:18:24;;;;;;;2.40;2.30;;;21.60;99.90;;;;;;5031472;28;20236;-64
2023/05/23 11:20:53;;;;;;;2.20;2.10;;;21.60;99.90;;;;;;5030552;28;20597;-64
2023/05/23 11:23:22;;;;;;;2.10;2.00;;;21.60;99.90;;;;;;5031025;28;20867;-63
2023/05/23 11:25:51;;;;;;;2.10;2.00;;;21.60;99.90;;;;;;5031077;28;20212;-63
2023/05/23 11:28:18;;;;;;;2.15;2.05;;;21.70;99.90;;;;;;5031060;28;20229;-64
2023/05/23 11:30:48;;;;;;;1.98;1.88;;;21.80;99.90;;;;;;5030309;28;20200;-64
2023/05/23 11:33:17;;;;;;;2.35;2.25;;;21.80;99.90;;;;;;5033930;28;20201;-64
2023/05/23 11:35:45;;;;;;;2.10;1.95;;;21.80;99.90;;;;;;5035620;28;20208;-64
2023/05/23 11:38:13;;;;;;;2.30;2.20;;;21.90;99.90;;;;;;5035173;28;20225;-65
2023/05/23 11:40:43;;;;;;;2.03;1.92;;;21.80;99.90;;;;;;5034303;28;20222;-64
2023/05/23 11:43:12;;;;;;;2.55;2.45;;;21.80;99.90;;;;;;5034578;28;20225;-65
2023/05/23 11:45:40;;;;;;;4.07;3.88;;;21.80;99.90;;;;;;5035584;28;20299;-66
2023/05/23 11:48:08;;;;;;;2.30;2.20;;;21.70;99.90;;;;;;5034665;28;20328;-63
2023/05/23 11:50:43;;;;;;;1.80;1.70;;;21.60;99.90;;;;;;5034806;28;20216;-64
2023/05/23 11:53:10;;;;;;;3.78;3.58;;;21.60;99.90;;;;;;5035198;28;20196;-65
2023/05/23 11:55:48;;;;;;;2.10;2.00;;;21.70;99.90;;;;;;5037912;28;20204;-64
2023/05/23 11:58:15;;;;;;;1.90;1.80;;;21.70;99.90;;;;;;5039256;28;20227;-65
2023/05/23 12:00:45;;;;;;;1.63;1.63;;;21.60;99.90;;;;;;5038225;28;20208;-63
2023/05/23 12:03:12;;;;;;;1.85;1.75;;;21.70;99.90;;;;;;5036344;28;20722;-65
2023/05/23 12:05:39;;;;;;;2.10;2.00;;;21.90;99.90;;;;;;5037014;28;20207;-65
2023/05/23 12:08:06;;;;;;;2.28;2.08;;;22.10;99.90;;;;;;5036983;28;20232;-66
2023/05/23 12:10:33;;;;;;;6.30;5.90;;;22.30;99.90;;;;;;5036222;28;20577;-65
2023/05/23 12:13:01;;;;;;;7.30;7.00;;;22.20;99.90;;;;;;5037322;28;20291;-64
2023/05/23 12:15:30;;;;;;;8.50;8.05;;;21.90;99.90;;;;;;5036205;28;20208;-64
2023/05/23 12:17:58;;;;;;;12.38;11.88;;;21.80;99.90;;;;;;5036071;28;20229;-65
2023/05/23 12:20:27;;;;;;;2.08;1.98;;;21.80;99.90;;;;;;5036445;28;20729;-63
2023/05/23 12:22:54;;;;;;;1.73;1.67;;;21.80;99.90;;;;;;5036432;28;20315;-65
2023/05/23 12:25:22;;;;;;;1.42;1.42;;;21.90;99.90;;;;;;5036333;28;20208;-64
2023/05/23 12:27:48;;;;;;;4.97;4.78;;;21.90;99.90;;;;;;5039226;28;20343;-64
2023/05/23 12:30:17;;;;;;;2.83;2.72;;;22.00;99.90;;;;;;5038154;28;20208;-65
2023/05/23 12:32:46;;;;;;;1.85;1.75;;;22.00;99.90;;;;;;5036885;28;20207;-64
2023/05/23 12:35:14;;;;;;;2.05;1.95;;;22.20;99.90;;;;;;5034721;28;20219;-64
2023/05/23 12:37:42;;;;;;;1.80;1.70;;;22.20;99.90;;;;;;5034037;28;20794;-64
2023/05/23 12:40:14;;;;;;;1.52;1.42;;;22.30;99.90;;;;;;5033544;28;20205;-63
2023/05/23 12:42:51;;;;;;;2.65;2.55;;;22.30;99.90;;;;;;5034313;28;20307;-63
2023/05/23 12:45:20;;;;;;;1.40;1.40;;;22.50;99.90;;;;;;5035994;28;20204;-63
2023/05/23 12:47:46;;;;;;;2.25;1.40;;;22.60;99.90;;;;;;5033178;28;20258;-65
2023/05/23 12:50:14;;;;;;;2.70;2.60;;;22.80;99.90;;;;;;5033057;28;20211;-65